createdAt,value
2023-05-19T00:14:10.695Z,305
2023-05-19T00:34:10.623Z,309
2023-05-19T00:54:10.614Z,307
2023-05-19T01:14:10.590Z,301
2023-05-19T01:34:10.569Z,309
2023-05-19T01:54:10.576Z,302
2023-05-19T02:14:10.554Z,310
2023-05-19T02:34:10.519Z,301
2023-05-19T02:54:10.491Z,298
2023-05-19T03:14:10.478Z,303
2023-05-19T03:34:10.454Z,297
2023-05-19T03:54:10.452Z,297
2023-05-19T04:14:10.428Z,293
2023-05-19T04:34:10.426Z,306
2023-05-19T04:54:10.372Z,308
2023-05-19T05:14:10.371Z,306
2023-05-19T05:34:10.345Z,316
2023-05-19T05:54:10.316Z,316
2023-05-19T06:14:10.302Z,306
2023-05-19T06:34:10.297Z,313
2023-05-19T06:54:10.270Z,319
2023-05-19T07:14:10.216Z,324
2023-05-19T07:34:10.203Z,329
2023-05-19T07:54:10.166Z,331
2023-05-19T08:14:10.155Z,313
2023-05-19T08:34:09.915Z,322
2023-05-19T08:54:10.086Z,314
2023-05-19T09:14:10.051Z,326
2023-05-19T09:34:09.853Z,305
2023-05-19T09:54:10.002Z,295
2023-05-19T10:14:09.970Z,291
2023-05-19T10:34:09.947Z,300
2023-05-19T10:54:11.514Z,293
2023-05-19T11:14:09.887Z,294
2023-05-19T11:34:09.879Z,289
2023-05-19T11:54:09.824Z,283
2023-05-19T12:14:09.590Z,290
2023-05-19T12:34:09.768Z,286
2023-05-19T12:54:09.758Z,306
2023-05-19T13:14:09.708Z,299
2023-05-19T13:34:09.680Z,293
2023-05-19T13:54:09.647Z,269
2023-05-19T14:14:11.232Z,277
2023-05-19T14:34:09.594Z,267
2023-05-19T14:54:09.602Z,280
2023-05-19T15:34:09.497Z,297
2023-05-19T16:14:09.443Z,310
2023-05-19T16:34:09.411Z,318
2023-05-19T16:54:09.385Z,315
2023-05-19T17:14:09.360Z,316
2023-05-19T17:34:09.347Z,316
2023-05-19T17:54:09.301Z,296
2023-05-19T18:14:09.260Z,305
2023-05-19T18:54:09.210Z,319
2023-05-19T19:14:09.201Z,318
2023-05-19T19:34:09.207Z,309
2023-05-19T19:54:08.627Z,310
2023-05-19T20:14:09.095Z,317
2023-05-19T20:34:09.109Z,302
2023-05-19T20:54:09.049Z,317
2023-05-19T21:14:09.025Z,314
2023-05-19T21:34:09.027Z,298
2023-05-19T21:54:08.961Z,311
2023-05-19T22:14:08.758Z,297
2023-05-19T22:34:08.969Z,300
2023-05-19T22:54:08.900Z,296
2023-05-19T23:14:08.859Z,301
2023-05-19T23:34:08.893Z,310
2023-05-19T23:54:08.827Z,295
